Time;durP1;ratioP1;P1;durP2;ratioP2;P2;SDS_P1;SDS_P2;PMS_P1;PMS_P2;Temp;Humidity;BMP_temperature;BMP_pressure;BME280_temperature;BME280_humidity;BME280_pressure;Samples;Min_cycle;Max_cycle;Signal;HPM_P1;HPM_P2
2022/06/09 00:00:21;;;;;;;4.97;2.53;;;14.00;99.90;;;;;;5032805;28;20052;-69
2022/06/09 00:02:51;;;;;;;4.53;2.92;;;14.00;99.90;;;;;;5074191;28;20036;-63
2022/06/09 00:05:17;;;;;;;3.50;2.97;;;14.00;99.90;;;;;;5038592;28;20040;-58
2022/06/09 00:07:45;;;;;;;4.65;2.92;;;13.90;99.90;;;;;;5067961;28;20040;-59
2022/06/09 00:10:19;;;;;;;3.83;3.22;;;13.90;99.90;;;;;;5067802;28;20056;-63
2022/06/09 00:12:45;;;;;;;5.95;3.13;;;13.90;99.90;;;;;;5067669;28;20052;-65
2022/06/09 00:15:13;;;;;;;3.88;3.50;;;13.90;99.90;;;;;;5068007;28;20409;-63
2022/06/09 00:17:40;;;;;;;4.65;3.80;;;13.90;99.90;;;;;;5069097;28;20075;-63
2022/06/09 00:20:07;;;;;;;4.78;4.32;;;13.90;99.90;;;;;;5070597;28;20048;-67
2022/06/09 00:22:33;;;;;;;7.43;4.47;;;13.90;99.90;;;;;;5071196;28;20075;-61
2022/06/09 00:24:59;;;;;;;5.43;4.65;;;13.90;99.90;;;;;;5055264;28;20048;-66
2022/06/09 00:27:25;;;;;;;5.10;4.60;;;14.00;99.90;;;;;;5071626;28;20055;-59
2022/06/09 00:29:50;;;;;;;6.50;5.38;;;14.00;99.90;;;;;;5069956;28;20052;-59
2022/06/09 00:32:16;;;;;;;6.25;4.95;;;14.00;99.90;;;;;;5071141;28;20044;-59
2022/06/09 00:34:42;;;;;;;6.97;5.88;;;14.00;99.90;;;;;;5054395;28;20071;-63
2022/06/09 00:37:07;;;;;;;12.38;6.13;;;14.00;99.90;;;;;;5072057;28;20048;-64
2022/06/09 00:39:33;;;;;;;11.15;6.10;;;14.00;99.90;;;;;;5070982;28;20397;-63
2022/06/09 00:41:59;;;;;;;7.53;6.43;;;14.10;99.90;;;;;;5070858;28;20048;-65
2022/06/09 00:44:28;;;;;;;8.73;5.70;;;14.10;99.90;;;;;;5071476;28;20522;-71
2022/06/09 00:47:01;;;;;;;8.30;7.03;;;14.10;99.90;;;;;;5089735;28;20124;-70
2022/06/09 00:49:41;;;;;;;12.25;7.22;;;14.10;99.90;;;;;;5071270;28;20088;-59
2022/06/09 00:52:08;;;;;;;;;;;14.10;99.90;;;;;;5070204;28;20044;-63
2022/06/09 00:54:50;;;;;;;10.43;5.95;;;14.10;99.90;;;;;;5071140;28;19935;-69
2022/06/09 00:57:20;;;;;;;13.50;7.35;;;14.20;99.90;;;;;;5070815;28;20056;-63
2022/06/09 00:59:51;;;;;;;9.55;7.13;;;14.20;99.90;;;;;;5071068;28;20514;-66
2022/06/09 01:02:19;;;;;;;10.30;7.70;;;14.20;99.90;;;;;;5080671;28;20036;-64
2022/06/09 01:04:48;;;;;;;11.63;8.00;;;14.20;99.90;;;;;;5070653;28;20039;-66
2022/06/09 01:07:18;;;;;;;20.70;10.82;;;14.20;99.90;;;;;;5071325;28;20059;-66
2022/06/09 01:09:43;;;;;;;;;;;14.20;99.90;;;;;;5071187;28;20052;-66
2022/06/09 01:12:26;;;;;;;21.52;13.38;;;14.20;99.90;;;;;;5053828;28;19927;-58
2022/06/09 01:14:59;;;;;;;24.10;12.48;;;14.30;99.90;;;;;;5059106;28;20047;-62
2022/06/09 01:17:35;;;;;;;21.67;12.30;;;14.30;99.90;;;;;;5070856;28;20059;-64
2022/06/09 01:20:39;;;;;;;25.83;12.00;;;14.30;99.90;;;;;;5070869;28;20573;-60
2022/06/09 01:23:17;;;;;;;29.92;12.77;;;14.30;99.90;;;;;;5068849;28;20330;-59
2022/06/09 01:26:03;;;;;;;23.95;11.05;;;14.30;99.90;;;;;;5070419;28;20087;-67
2022/06/09 01:29:09;;;;;;;22.27;11.82;;;14.30;99.90;;;;;;5057571;28;20044;-60
2022/06/09 01:31:46;;;;;;;26.55;12.30;;;14.30;99.90;;;;;;5052930;28;20684;-64
2022/06/09 01:34:52;;;;;;;24.23;11.50;;;14.30;99.90;;;;;;5066920;28;20080;-66
2022/06/09 01:37:43;;;;;;;30.40;11.98;;;14.30;99.90;;;;;;5078244;28;20473;-62
2022/06/09 01:40:12;;;;;;;26.65;11.60;;;14.30;99.90;;;;;;5060857;28;20060;-62
2022/06/09 01:42:59;;;;;;;34.60;12.10;;;14.30;99.90;;;;;;5070101;28;20058;-70
2022/06/09 01:45:35;;;;;;;32.22;12.38;;;14.30;99.90;;;;;;5087371;28;20734;-60
2022/06/09 01:48:21;;;;;;;32.30;12.52;;;14.30;99.90;;;;;;5062792;28;20048;-62
2022/06/09 01:50:56;;;;;;;38.42;13.38;;;14.30;99.90;;;;;;5069975;28;20410;-64
2022/06/09 01:53:46;;;;;;;36.95;13.52;;;14.30;99.90;;;;;;5070148;28;20459;-65
2022/06/09 01:56:35;;;;;;;36.33;12.35;;;14.30;99.90;;;;;;5070334;28;20048;-64
2022/06/09 01:59:11;;;;;;;31.77;12.13;;;14.30;99.90;;;;;;5064103;28;20075;-59
2022/06/09 02:01:53;;;;;;;36.45;11.93;;;14.30;99.90;;;;;;5068756;28;20047;-61
2022/06/09 02:04:23;;;;;;;31.17;12.15;;;14.30;99.90;;;;;;5070215;28;20051;-67
2022/06/09 02:06:51;;;;;;;28.92;11.45;;;14.30;99.90;;;;;;5086930;28;20582;-59
2022/06/09 02:09:17;;;;;;;35.00;12.32;;;14.30;99.90;;;;;;5069315;28;20494;-61
2022/06/09 02:12:04;;;;;;;34.10;12.70;;;14.30;99.90;;;;;;5068963;28;20059;-63
2022/06/09 02:14:32;;;;;;;35.67;12.38;;;14.30;99.90;;;;;;5053024;28;20482;-67
2022/06/09 02:16:58;;;;;;;41.78;14.60;;;14.30;99.90;;;;;;5069716;28;20048;-61
2022/06/09 02:19:25;;;;;;;35.05;12.90;;;14.30;99.90;;;;;;5069185;28;20120;-60
2022/06/09 02:21:51;;;;;;;38.40;13.30;;;14.30;99.90;;;;;;5069248;28;20028;-60
2022/06/09 02:24:17;;;;;;;36.05;12.65;;;14.30;99.90;;;;;;5069826;28;20129;-65
2022/06/09 02:26:43;;;;;;;33.10;12.65;;;14.30;99.90;;;;;;5069102;28;20048;-66
2022/06/09 02:29:09;;;;;;;33.25;12.82;;;14.30;99.90;;;;;;5069645;28;20135;-62
2022/06/09 02:31:35;;;;;;;34.10;13.38;;;14.30;99.90;;;;;;5050685;28;20044;-60
2022/06/09 02:34:01;;;;;;;40.38;13.45;;;14.30;99.90;;;;;;5069581;28;20044;-62
2022/06/09 02:36:27;;;;;;;42.17;13.93;;;14.30;99.90;;;;;;5068861;28;20040;-61
2022/06/09 02:38:53;;;;;;;34.15;13.23;;;14.30;99.90;;;;;;5069295;28;20066;-66
2022/06/09 02:41:19;;;;;;;35.38;13.50;;;14.30;99.90;;;;;;5060587;28;20044;-69
2022/06/09 02:43:45;;;;;;;39.60;13.75;;;14.30;99.90;;;;;;5069497;28;20051;-68
2022/06/09 02:46:11;;;;;;;35.50;13.68;;;14.30;99.90;;;;;;5052445;28;20402;-68
2022/06/09 02:48:37;;;;;;;41.38;12.18;;;14.30;99.90;;;;;;5068865;28;20050;-63
2022/06/09 02:51:26;;;;;;;51.88;13.52;;;14.30;99.90;;;;;;5067910;28;20103;-66
2022/06/09 02:53:53;;;;;;;29.42;13.68;;;14.30;99.90;;;;;;5055533;28;20048;-59
2022/06/09 02:56:19;;;;;;;40.67;13.90;;;14.30;99.90;;;;;;5069213;28;20086;-61
2022/06/09 02:58:45;;;;;;;41.85;13.95;;;14.30;99.90;;;;;;5067851;28;20131;-61
2022/06/09 03:01:11;;;;;;;33.95;13.63;;;14.30;99.90;;;;;;5066340;28;20040;-64
2022/06/09 03:03:37;;;;;;;35.65;13.93;;;14.30;99.90;;;;;;5068596;28;20043;-64
2022/06/09 03:06:03;;;;;;;32.65;13.43;;;14.20;99.90;;;;;;5068376;28;20047;-65
2022/06/09 03:08:29;;;;;;;35.15;14.52;;;14.20;99.90;;;;;;5068778;28;20066;-60
2022/06/09 03:10:55;;;;;;;31.88;14.20;;;14.20;99.90;;;;;;5067936;28;20054;-63
2022/06/09 03:13:21;;;;;;;35.97;13.35;;;14.20;99.90;;;;;;5044938;28;20044;-63
2022/06/09 03:15:48;;;;;;;29.02;13.27;;;14.20;99.90;;;;;;5067665;28;20040;-62
2022/06/09 03:18:17;;;;;;;27.08;12.57;;;14.20;99.90;;;;;;5068592;28;20056;-62
2022/06/09 03:20:46;;;;;;;30.60;12.65;;;14.10;99.90;;;;;;5085634;28;20064;-65
2022/06/09 03:23:12;;;;;;;28.38;12.93;;;14.10;99.90;;;;;;5066800;28;20449;-65
2022/06/09 03:25:38;;;;;;;27.67;14.20;;;14.10;99.90;;;;;;5068686;28;20048;-60
2022/06/09 03:28:05;;;;;;;34.83;14.98;;;14.10;99.90;;;;;;5067596;28;20131;-61
2022/06/09 03:30:32;;;;;;;34.50;13.73;;;14.10;99.90;;;;;;5062498;28;20048;-65
2022/06/09 03:32:59;;;;;;;33.95;13.65;;;14.10;99.90;;;;;;5066083;28;20036;-62
2022/06/09 03:35:25;;;;;;;31.15;13.65;;;14.10;99.90;;;;;;5069097;28;20123;-63
2022/06/09 03:37:51;;;;;;;29.60;14.57;;;14.20;99.90;;;;;;5067373;28;20514;-67
2022/06/09 03:40:19;;;;;;;38.33;14.57;;;14.20;99.90;;;;;;5050163;28;20075;-64
2022/06/09 03:42:45;;;;;;;30.77;14.00;;;14.10;99.90;;;;;;5045017;28;20106;-62
2022/06/09 03:45:11;;;;;;;35.25;14.45;;;14.10;99.90;;;;;;5067721;28;20079;-70
2022/06/09 03:47:38;;;;;;;37.22;15.80;;;14.10;99.90;;;;;;5051824;28;20119;-64
2022/06/09 03:50:06;;;;;;;24.75;14.18;;;14.10;99.90;;;;;;5050647;28;20051;-62
2022/06/09 03:52:32;;;;;;;28.02;14.23;;;14.10;99.90;;;;;;5062755;28;20055;-64
2022/06/09 03:54:58;;;;;;;34.55;15.43;;;14.10;99.90;;;;;;5067611;28;20044;-60
2022/06/09 03:57:24;;;;;;;25.75;13.98;;;14.10;99.90;;;;;;5067650;28;20048;-63
2022/06/09 03:59:50;;;;;;;28.85;13.07;;;14.00;99.90;;;;;;5067502;28;20048;-61
2022/06/09 04:02:15;;;;;;;20.10;13.55;;;14.00;99.90;;;;;;5047210;28;20064;-59
2022/06/09 04:04:41;;;;;;;29.65;14.40;;;14.00;99.90;;;;;;5051487;28;20040;-61
2022/06/09 04:07:07;;;;;;;24.67;12.48;;;14.00;99.90;;;;;;5067478;28;20044;-66
2022/06/09 04:09:33;;;;;;;27.40;13.88;;;13.90;99.90;;;;;;5068369;28;20044;-66
2022/06/09 04:11:59;;;;;;;24.63;13.63;;;14.00;99.90;;;;;;5063191;28;20049;-64
2022/06/09 04:14:25;;;;;;;31.60;14.50;;;13.90;99.90;;;;;;5084386;28;20044;-63
2022/06/09 04:16:55;;;;;;;28.63;14.27;;;13.90;99.90;;;;;;5067197;28;20040;-66
2022/06/09 04:19:22;;;;;;;24.55;14.57;;;13.90;99.90;;;;;;5068054;28;20069;-63
2022/06/09 04:21:48;;;;;;;28.20;15.35;;;13.90;99.90;;;;;;5067539;28;20491;-65
2022/06/09 04:24:14;;;;;;;29.48;15.57;;;13.90;99.90;;;;;;5056651;28;20056;-64
2022/06/09 04:26:41;;;;;;;26.50;16.48;;;14.00;99.90;;;;;;5068041;28;20044;-64
2022/06/09 04:29:08;;;;;;;24.45;16.00;;;13.90;99.90;;;;;;5067047;28;20169;-66
2022/06/09 04:31:34;;;;;;;25.50;15.90;;;13.90;99.90;;;;;;5085501;28;20048;-63
2022/06/09 04:34:00;;;;;;;30.70;17.25;;;14.00;99.90;;;;;;5067238;28;20044;-69
2022/06/09 04:36:26;;;;;;;32.53;17.77;;;14.00;99.90;;;;;;5079593;28;20036;-60
2022/06/09 04:38:52;;;;;;;29.00;17.33;;;14.00;99.90;;;;;;5067074;28;20044;-65
2022/06/09 04:41:17;;;;;;;29.25;16.77;;;14.00;99.90;;;;;;5050939;28;20036;-60
2022/06/09 04:43:47;;;;;;;38.08;17.15;;;14.00;99.90;;;;;;5068494;28;20040;-58
2022/06/09 04:46:15;;;;;;;31.83;18.40;;;14.10;99.90;;;;;;5065599;28;20485;-68
2022/06/09 04:48:42;;;;;;;32.22;16.50;;;14.10;99.90;;;;;;5067900;28;20040;-68
2022/06/09 04:51:10;;;;;;;28.77;16.55;;;14.00;99.90;;;;;;5066988;28;20459;-59
2022/06/09 04:53:37;;;;;;;31.90;18.30;;;14.10;99.90;;;;;;5067164;28;20475;-59
2022/06/09 04:56:04;;;;;;;31.13;17.45;;;14.10;99.90;;;;;;5067107;28;20048;-62
2022/06/09 04:58:29;;;;;;;31.38;18.55;;;14.10;99.90;;;;;;5048735;28;20044;-63
2022/06/09 05:00:55;;;;;;;28.73;17.45;;;14.20;99.90;;;;;;5064747;28;20052;-62
2022/06/09 05:03:21;;;;;;;35.88;17.13;;;14.20;99.90;;;;;;5046060;28;20047;-58
2022/06/09 05:05:49;;;;;;;35.60;18.90;;;14.30;99.90;;;;;;5071414;28;20044;-68
2022/06/09 05:08:15;;;;;;;38.60;18.23;;;14.30;99.90;;;;;;5088031;28;20811;-64
2022/06/09 05:10:43;;;;;;;31.05;18.95;;;14.30;99.90;;;;;;5070844;28;20040;-59
2022/06/09 05:13:10;;;;;;;32.67;20.95;;;14.30;99.90;;;;;;5070482;28;20040;-58
2022/06/09 05:15:43;;;;;;;38.10;19.05;;;14.20;99.90;;;;;;5070773;28;20048;-62
2022/06/09 05:18:11;;;;;;;39.78;19.05;;;14.20;99.90;;;;;;5088897;28;20048;-59
2022/06/09 05:20:37;;;;;;;30.55;19.60;;;14.20;99.90;;;;;;5088323;28;20044;-61
2022/06/09 05:23:03;;;;;;;40.78;19.50;;;14.20;99.90;;;;;;5054589;28;20135;-67
2022/06/09 05:25:28;;;;;;;34.08;20.42;;;14.20;99.90;;;;;;5061861;28;20131;-63
2022/06/09 05:27:54;;;;;;;35.63;19.55;;;14.20;99.90;;;;;;5070135;28;20044;-60
2022/06/09 05:30:24;;;;;;;41.35;20.30;;;14.20;99.90;;;;;;5070499;28;20097;-60
2022/06/09 05:32:51;;;;;;;37.33;21.67;;;14.20;99.90;;;;;;5053145;28;20048;-62
2022/06/09 05:35:17;;;;;;;38.15;20.85;;;14.30;99.90;;;;;;5065112;28;20101;-60
2022/06/09 05:45:59;;;;;;;31.30;17.38;;;14.30;99.90;;;;;;5069993;28;20059;-62
2022/06/09 05:48:25;;;;;;;29.13;18.77;;;14.40;99.90;;;;;;5088500;28;20039;-61
2022/06/09 05:50:52;;;;;;;33.35;18.73;;;14.40;99.90;;;;;;5069931;28;20051;-66
2022/06/09 05:53:18;;;;;;;30.08;18.05;;;14.40;99.90;;;;;;5070005;28;20036;-62
2022/06/09 05:55:44;;;;;;;30.33;17.67;;;14.40;99.90;;;;;;5070073;28;20048;-63
2022/06/09 05:58:10;;;;;;;31.33;19.08;;;14.50;99.90;;;;;;5069047;28;20059;-60
2022/06/09 06:00:37;;;;;;;29.23;18.48;;;14.50;99.90;;;;;;5070180;28;20052;-63
2022/06/09 06:03:02;;;;;;;29.80;18.85;;;14.60;99.90;;;;;;5087436;28;20046;-66
2022/06/09 06:08:12;;;;;;;28.60;17.17;;;14.70;99.90;;;;;;5055264;28;20048;-62
2022/06/09 06:10:38;;;;;;;25.38;18.15;;;14.70;99.90;;;;;;5069879;28;20094;-62
2022/06/09 06:13:04;;;;;;;30.90;16.63;;;14.80;99.90;;;;;;5060730;28;20148;-64
2022/06/09 06:15:29;;;;;;;28.27;16.90;;;14.90;99.90;;;;;;5087077;28;20083;-64
2022/06/09 06:17:56;;;;;;;27.15;16.92;;;15.00;99.90;;;;;;5068832;28;20079;-59
2022/06/09 06:20:23;;;;;;;28.63;15.48;;;15.10;99.90;;;;;;5049598;28;20491;-58
2022/06/09 06:22:48;;;;;;;27.80;16.02;;;15.20;99.90;;;;;;5050742;28;20044;-62
2022/06/09 06:25:14;;;;;;;32.90;16.65;;;15.30;99.90;;;;;;5084512;28;20040;-67
2022/06/09 06:27:41;;;;;;;20.92;14.93;;;15.30;99.90;;;;;;5049310;28;20136;-64
2022/06/09 06:30:08;;;;;;;28.25;14.63;;;15.50;99.90;;;;;;5050123;28;20063;-63
2022/06/09 06:32:33;;;;;;;24.33;14.88;;;15.60;99.90;;;;;;5085696;28;20043;-62
2022/06/09 06:35:00;;;;;;;24.80;14.88;;;15.60;99.90;;;;;;5085104;28;20397;-65
2022/06/09 06:37:26;;;;;;;24.88;15.73;;;15.70;99.90;;;;;;5068594;28;20071;-66
2022/06/09 06:39:52;;;;;;;24.70;15.95;;;15.60;99.90;;;;;;5050721;28;20479;-64
2022/06/09 06:42:18;;;;;;;24.95;15.70;;;15.60;99.90;;;;;;5065726;28;20482;-62
2022/06/09 06:44:43;;;;;;;22.52;15.55;;;15.50;99.90;;;;;;5064856;28;20466;-61
2022/06/09 06:47:11;;;;;;;24.65;15.20;;;15.40;99.90;;;;;;5066723;28;20048;-59
2022/06/09 06:49:37;;;;;;;23.67;15.48;;;15.40;99.90;;;;;;5051985;28;20398;-65
2022/06/09 06:52:03;;;;;;;20.95;15.20;;;15.30;99.90;;;;;;5081210;28;20044;-62
2022/06/09 06:54:31;;;;;;;23.05;14.40;;;15.30;99.90;;;;;;5066241;28;20443;-66
2022/06/09 06:56:56;;;;;;;24.02;15.68;;;15.30;99.90;;;;;;5058028;28;20063;-62
2022/06/09 06:59:22;;;;;;;19.52;15.13;;;15.30;99.90;;;;;;5049562;28;20052;-66
2022/06/09 07:01:48;;;;;;;24.83;14.68;;;15.30;99.90;;;;;;5066718;28;20043;-58
2022/06/09 07:04:15;;;;;;;21.95;15.32;;;15.30;99.90;;;;;;5078298;28;20047;-60
2022/06/09 07:06:41;;;;;;;22.38;14.13;;;15.40;99.90;;;;;;5085458;28;20068;-59
2022/06/09 07:09:06;;;;;;;23.33;14.45;;;15.30;99.90;;;;;;5062671;28;20167;-66
2022/06/09 07:11:32;;;;;;;22.70;14.98;;;15.30;99.90;;;;;;5085521;28;20512;-64
2022/06/09 07:13:59;;;;;;;23.23;15.52;;;15.40;99.90;;;;;;5085116;28;20047;-63
2022/06/09 07:16:25;;;;;;;22.65;15.88;;;15.50;99.90;;;;;;5066569;28;20485;-61
2022/06/09 07:18:51;;;;;;;20.15;14.63;;;15.60;99.90;;;;;;5067179;28;20062;-68
2022/06/09 07:21:17;;;;;;;21.40;15.95;;;15.80;99.90;;;;;;5086200;28;20495;-63
2022/06/09 07:23:43;;;;;;;21.98;15.77;;;15.90;99.90;;;;;;5052592;28;20048;-66
2022/06/09 07:26:08;;;;;;;23.05;15.57;;;16.00;99.90;;;;;;5085640;28;20466;-62
2022/06/09 07:28:34;;;;;;;24.45;16.02;;;16.10;99.90;;;;;;5064793;28;20048;-58
2022/06/09 07:31:01;;;;;;;25.90;17.33;;;16.00;99.90;;;;;;5086108;28;20165;-59
2022/06/09 07:33:30;;;;;;;22.92;16.42;;;16.00;99.90;;;;;;5067989;28;20496;-68
2022/06/09 07:35:57;;;;;;;23.98;15.68;;;15.90;99.90;;;;;;5084777;28;20494;-61
2022/06/09 07:38:24;;;;;;;20.83;16.38;;;15.90;99.90;;;;;;5050852;28;20048;-64
2022/06/09 07:40:50;;;;;;;17.77;14.95;;;16.00;99.90;;;;;;5080417;28;20492;-57
2022/06/09 07:43:16;;;;;;;17.42;12.48;;;16.00;99.90;;;;;;5067617;28;20178;-58
2022/06/09 07:45:43;;;;;;;18.50;14.10;;;16.10;99.90;;;;;;5050347;28;20170;-63
2022/06/09 07:48:09;;;;;;;13.77;11.60;;;16.30;99.90;;;;;;5067356;28;20044;-68
2022/06/09 07:50:36;;;;;;;15.50;10.60;;;16.50;99.90;;;;;;5049577;28;20063;-64
2022/06/09 07:53:01;;;;;;;15.10;11.38;;;16.60;99.90;;;;;;5050917;28;20055;-61
2022/06/09 07:55:28;;;;;;;13.00;10.73;;;17.00;99.90;;;;;;5047277;28;20044;-61
2022/06/09 07:57:54;;;;;;;12.50;9.85;;;17.20;99.90;;;;;;5078923;28;20525;-62
2022/06/09 08:00:22;;;;;;;10.00;8.85;;;17.00;99.90;;;;;;5085078;28;20044;-64
2022/06/09 08:02:54;;;;;;;15.18;8.73;;;17.00;99.90;;;;;;5068751;28;20453;-63
2022/06/09 08:05:22;;;;;;;9.13;7.63;;;17.20;99.90;;;;;;5056267;28;20044;-58
2022/06/09 08:07:48;;;;;;;11.57;8.13;;;17.40;99.90;;;;;;5084677;28;20042;-65
2022/06/09 08:10:18;;;;;;;12.23;9.52;;;17.60;99.90;;;;;;5067385;28;20155;-62
2022/06/09 08:12:45;;;;;;;10.82;8.73;;;17.60;99.90;;;;;;5085362;28;20193;-61
2022/06/09 08:15:13;;;;;;;10.00;6.55;;;17.90;99.90;;;;;;5067811;28;20048;-69
2022/06/09 08:17:39;;;;;;;9.38;6.93;;;18.00;99.90;;;;;;5083961;28;20052;-64
2022/06/09 08:20:07;;;;;;;7.40;6.07;;;18.10;99.90;;;;;;5066698;28;20051;-60
2022/06/09 08:22:32;;;;;;;8.88;7.07;;;18.00;99.90;;;;;;5064898;28;20402;-62
2022/06/09 08:24:58;;;;;;;8.57;5.57;;;17.80;99.90;;;;;;5081759;28;20046;-58
2022/06/09 08:27:24;;;;;;;7.20;5.20;;;17.90;99.90;;;;;;5064366;28;20055;-59
2022/06/09 08:29:51;;;;;;;8.48;4.97;;;18.30;99.90;;;;;;5049343;28;20040;-63
2022/06/09 08:32:16;;;;;;;10.23;5.30;;;18.40;99.90;;;;;;5082772;28;20490;-64
2022/06/09 08:34:42;;;;;;;6.80;4.60;;;18.60;99.90;;;;;;5080168;28;20055;-64
2022/06/09 08:37:08;;;;;;;11.02;4.75;;;18.50;99.90;;;;;;5060512;28;20040;-68
2022/06/09 08:39:34;;;;;;;7.85;3.75;;;18.50;99.90;;;;;;5079552;28;20471;-59
2022/06/09 08:42:18;;;;;;;5.13;2.85;;;18.10;99.90;;;;;;5069299;28;20394;-61
2022/06/09 08:44:55;;;;;;;4.18;2.28;;;17.90;99.90;;;;;;5086679;28;20048;-62
2022/06/09 08:47:49;;;;;;;3.45;2.30;;;18.10;99.90;;;;;;5081944;28;20071;-60
2022/06/09 08:50:27;;;;;;;2.78;2.58;;;18.50;99.90;;;;;;5082795;28;20056;-66
2022/06/09 08:53:20;;;;;;;3.17;2.40;;;18.70;99.90;;;;;;5086630;28;20052;-58
2022/06/09 08:55:52;;;;;;;4.82;2.65;;;18.50;99.90;;;;;;5085816;28;20067;-60
2022/06/09 08:58:39;;;;;;;1.55;1.30;;;18.50;99.90;;;;;;5081225;28;20087;-58
2022/06/09 09:01:12;;;;;;;3.83;1.73;;;18.80;99.90;;;;;;5086110;28;20488;-62
2022/06/09 09:03:42;;;;;;;1.73;1.40;;;18.70;99.90;;;;;;5084695;28;20094;-68
2022/06/09 09:06:17;;;;;;;3.72;1.23;;;18.40;99.90;;;;;;5067105;28;20079;-63
2022/06/09 09:08:42;;;;;;;1.83;1.02;;;17.90;99.90;;;;;;5052900;28;20044;-64
2022/06/09 09:11:11;;;;;;;9.13;1.30;;;18.20;99.90;;;;;;5084958;28;20043;-50
2022/06/09 09:14:01;;;;;;;3.70;1.48;;;18.60;99.90;;;;;;5081495;28;20826;-51
2022/06/09 09:16:34;;;;;;;1.52;1.13;;;19.00;99.90;;;;;;5056068;28;20063;-58
2022/06/09 09:19:03;;;;;;;2.13;0.95;;;19.00;99.90;;;;;;5070321;28;20044;-53
2022/06/09 09:21:44;;;;;;;4.97;1.40;;;19.40;99.90;;;;;;5078255;28;20550;-67
2022/06/09 09:24:29;;;;;;;5.07;1.40;;;19.60;99.90;;;;;;5076168;28;20074;-54
2022/06/09 09:27:17;;;;;;;1.20;0.82;;;19.40;99.90;;;;;;5053735;28;20051;-59
2022/06/09 09:30:11;;;;;;;2.55;1.08;;;19.20;99.90;;;;;;5082121;28;20048;-61
2022/06/09 09:32:41;;;;;;;1.08;0.70;;;18.90;99.90;;;;;;5053160;28;20044;-54
2022/06/09 09:35:21;;;;;;;;;;;18.80;99.90;;;;;;5084516;28;20048;-61
2022/06/09 09:37:52;;;;;;;;;;;18.80;99.90;;;;;;5083798;28;19950;-64
2022/06/09 09:40:26;;;;;;;5.32;1.00;;;19.00;99.90;;;;;;5081400;28;20023;-51
2022/06/09 09:42:54;;;;;;;5.93;1.10;;;19.40;99.90;;;;;;5083824;28;20062;-56
2022/06/09 09:45:30;;;;;;;3.55;0.90;;;19.40;99.90;;;;;;5087470;28;20853;-52
2022/06/09 09:47:59;;;;;;;2.67;0.90;;;19.40;99.90;;;;;;5067820;28;20768;-67
2022/06/09 09:50:49;;;;;;;3.75;1.23;;;19.30;99.90;;;;;;5083969;28;20032;-52
2022/06/09 09:53:44;;;;;;;2.80;0.70;;;18.90;99.90;;;;;;5085461;28;20877;-57
2022/06/09 09:56:16;;;;;;;3.88;0.95;;;18.80;99.90;;;;;;5082837;28;20044;-57
2022/06/09 09:58:47;;;;;;;4.85;1.23;;;19.10;99.90;;;;;;5062345;28;20060;-55
2022/06/09 10:01:22;;;;;;;2.80;0.90;;;19.40;99.90;;;;;;5085401;28;20048;-50
2022/06/09 10:10:16;;;;;;;7.82;1.20;;;18.90;99.90;;;;;;5068837;28;20043;-62
2022/06/09 10:12:43;;;;;;;4.28;0.88;;;19.00;99.90;;;;;;5087694;28;20043;-56
2022/06/09 10:15:09;;;;;;;5.10;1.05;;;19.00;99.90;;;;;;5086194;28;20130;-61
2022/06/09 10:17:44;;;;;;;4.13;0.85;;;19.20;99.90;;;;;;5085824;28;20055;-62
2022/06/09 10:20:15;;;;;;;8.35;1.42;;;19.20;99.90;;;;;;5053530;28;20036;-53
2022/06/09 10:22:53;;;;;;;9.80;1.55;;;19.00;99.90;;;;;;5087171;28;20079;-61
2022/06/09 10:25:35;;;;;;;4.53;1.30;;;19.10;99.90;;;;;;5087994;28;20383;-65
2022/06/09 10:28:11;;;;;;;3.45;1.30;;;19.30;99.90;;;;;;5067654;28;20486;-55
2022/06/09 10:31:18;;;;;;;4.18;1.10;;;19.30;99.90;;;;;;5085736;28;20570;-53
2022/06/09 10:34:07;;;;;;;4.95;1.30;;;19.50;99.90;;;;;;5062770;28;20090;-55
2022/06/09 10:36:48;;;;;;;8.48;1.35;;;19.50;99.90;;;;;;5085598;28;20070;-53
2022/06/09 10:39:31;;;;;;;4.22;1.25;;;19.50;99.90;;;;;;5067872;28;20109;-62
2022/06/09 10:42:03;;;;;;;5.13;1.63;;;19.50;99.90;;;;;;5087516;28;20059;-55
2022/06/09 10:44:45;;;;;;;4.57;1.30;;;19.30;99.90;;;;;;5087122;28;20047;-54
2022/06/09 10:56:16;;;;;;;3.38;0.95;;;19.30;99.90;;;;;;5087201;28;20047;-57
2022/06/09 10:58:52;;;;;;;4.22;1.05;;;19.30;99.90;;;;;;5085189;28;20052;-57
2022/06/09 11:01:28;;;;;;;5.15;1.50;;;19.40;99.90;;;;;;5083574;28;20051;-51
2022/06/09 11:03:55;;;;;;;3.35;0.88;;;19.40;99.90;;;;;;5074161;28;20518;-60
2022/06/09 11:06:51;;;;;;;4.55;1.15;;;19.60;99.90;;;;;;5068301;28;20127;-51
2022/06/09 11:09:26;;;;;;;7.80;1.30;;;19.50;99.90;;;;;;5074587;28;20393;-58
2022/06/09 11:12:00;;;;;;;4.13;1.23;;;19.40;99.90;;;;;;5086894;28;20059;-58
2022/06/09 11:15:07;;;;;;;2.78;0.85;;;19.40;99.90;;;;;;5074154;28;20043;-52
2022/06/09 11:18:00;;;;;;;4.38;1.20;;;19.40;99.90;;;;;;5056233;28;20433;-56
2022/06/09 11:21:00;;;;;;;5.95;1.20;;;19.50;99.90;;;;;;5066927;28;20055;-60
2022/06/09 11:23:44;;;;;;;;;;;19.70;99.90;;;;;;5073884;28;20093;-57
2022/06/09 11:26:36;;;;;;;3.60;1.17;;;19.90;99.90;;;;;;5086992;28;19920;-54
2022/06/09 11:29:41;;;;;;;5.47;1.10;;;19.80;99.90;;;;;;5068531;28;20083;-54
2022/06/09 11:32:09;;;;;;;6.32;1.20;;;19.70;99.90;;;;;;5077396;28;20052;-66
2022/06/09 11:34:54;;;;;;;7.40;1.17;;;19.70;99.90;;;;;;5080280;28;20044;-60
2022/06/09 11:37:40;;;;;;;2.70;0.82;;;19.70;99.90;;;;;;5084653;28;20130;-57
2022/06/09 11:40:22;;;;;;;3.95;1.20;;;19.90;99.60;;;;;;5086294;28;20549;-52
2022/06/09 11:42:51;;;;;;;4.70;0.90;;;20.00;96.40;;;;;;5086525;28;20036;-57
2022/06/09 11:45:45;;;;;;;2.05;0.70;;;20.00;99.90;;;;;;5073642;28;20102;-56
2022/06/09 11:48:32;;;;;;;3.63;1.20;;;19.70;94.10;;;;;;5086388;28;20052;-61
2022/06/09 11:50:59;;;;;;;4.40;1.10;;;19.30;96.50;;;;;;5085678;28;20036;-51
2022/06/09 11:53:28;;;;;;;8.88;1.20;;;19.40;97.00;;;;;;5086172;28;20032;-55
2022/06/09 11:56:33;;;;;;;6.45;1.63;;;19.60;99.90;;;;;;5084488;28;20056;-55
2022/06/09 11:59:00;;;;;;;4.30;1.45;;;19.90;99.90;;;;;;5085486;28;20810;-54
2022/06/09 12:01:32;;;;;;;1.92;0.95;;;20.00;95.10;;;;;;5081677;28;20083;-57
2022/06/09 12:04:16;;;;;;;5.20;1.10;;;19.80;97.50;;;;;;5070178;28;20044;-61
2022/06/09 12:06:41;;;;;;;5.32;1.55;;;19.80;92.90;;;;;;5057384;28;20043;-61
2022/06/09 12:09:30;;;;;;;4.13;1.30;;;19.70;97.30;;;;;;5077304;28;20482;-56
2022/06/09 12:11:59;;;;;;;4.68;0.82;;;19.80;99.90;;;;;;5061211;28;20084;-57
2022/06/09 12:14:30;;;;;;;;;;;19.70;94.70;;;;;;5088208;28;20048;-65
2022/06/09 12:17:05;;;;;;;5.55;1.35;;;19.80;95.10;;;;;;5089375;28;19934;-66
2022/06/09 12:19:49;;;;;;;5.03;1.25;;;19.80;95.50;;;;;;5088496;28;20055;-61
2022/06/09 12:22:42;;;;;;;8.23;1.35;;;19.80;96.90;;;;;;5086132;28;20059;-60
2022/06/09 12:25:08;;;;;;;5.10;1.05;;;19.80;97.30;;;;;;5087818;28;20495;-54
2022/06/09 12:27:37;;;;;;;4.80;0.98;;;20.00;99.90;;;;;;5090535;28;20047;-54
2022/06/09 12:30:03;;;;;;;6.85;2.17;;;20.20;98.00;;;;;;5090143;28;20043;-62
2022/06/09 12:32:40;;;;;;;3.88;1.10;;;20.20;98.40;;;;;;5091065;28;20398;-58
2022/06/09 12:35:30;;;;;;;4.88;1.05;;;20.10;96.30;;;;;;5089327;28;20178;-52
2022/06/09 12:38:01;;;;;;;4.55;1.13;;;20.00;94.10;;;;;;5052970;28;20052;-55
2022/06/09 12:40:42;;;;;;;5.47;1.55;;;19.60;97.20;;;;;;5084966;28;20048;-56
2022/06/09 12:43:21;;;;;;;4.00;1.05;;;19.10;98.00;;;;;;5053016;28;20048;-57
2022/06/09 12:46:03;;;;;;;4.40;1.13;;;19.10;99.90;;;;;;5088198;28;20044;-63
2022/06/09 12:48:33;;;;;;;5.20;1.23;;;19.20;96.70;;;;;;5090098;28;20039;-53
2022/06/09 12:51:00;;;;;;;8.13;1.50;;;19.40;99.40;;;;;;5090772;28;20079;-64
2022/06/09 12:53:37;;;;;;;3.67;0.93;;;19.60;95.00;;;;;;5087174;28;20065;-61
2022/06/09 12:56:21;;;;;;;7.43;1.08;;;19.50;90.80;;;;;;5081746;28;20105;-58
2022/06/09 12:58:49;;;;;;;4.53;1.00;;;19.40;98.70;;;;;;5087705;28;20124;-58
2022/06/09 13:01:27;;;;;;;3.75;1.15;;;19.40;99.30;;;;;;5083932;28;20083;-66
2022/06/09 13:03:58;;;;;;;5.93;0.95;;;19.50;99.90;;;;;;5071070;28;20048;-62
2022/06/09 13:06:37;;;;;;;1.70;0.80;;;19.70;95.60;;;;;;5068925;28;20048;-61
2022/06/09 13:09:19;;;;;;;8.10;1.35;;;19.70;97.00;;;;;;5066339;28;20285;-65
2022/06/09 13:14:45;;;;;;;3.17;1.05;;;19.60;97.60;;;;;;5078980;28;20043;-67
2022/06/09 13:17:27;;;;;;;5.82;1.45;;;19.50;99.90;;;;;;5072602;28;20054;-64
2022/06/09 13:20:03;;;;;;;10.73;1.33;;;19.30;97.60;;;;;;5086729;28;20390;-61
2022/06/09 13:22:29;;;;;;;4.45;1.10;;;19.00;98.30;;;;;;5089801;28;20125;-66
2022/06/09 13:24:56;;;;;;;5.88;1.50;;;19.20;99.70;;;;;;5062621;28;20477;-64
2022/06/09 13:27:25;;;;;;;3.63;1.15;;;19.40;99.90;;;;;;5061585;28;20079;-59
2022/06/09 13:30:26;;;;;;;5.80;1.50;;;19.60;99.90;;;;;;5083450;28;20513;-56